sensor_id;sensor_type;location;lat;lon;timestamp;pressure;altitude;pressure_sealevel;temperature;humidity
46095;BME280;31832;50.746;-2.716;2024-02-26T00:02:21;-15931.90;;;1.66;100.00
46095;BME280;31832;50.746;-2.716;2024-02-26T00:04:48;-15938.86;;;1.77;100.00
46095;BME280;31832;50.746;-2.716;2024-02-26T00:07:13;-15935.58;;;1.85;100.00
46095;BME280;31832;50.746;-2.716;2024-02-26T00:09:38;-15926.80;;;1.40;100.00
46095;BME280;31832;50.746;-2.716;2024-02-26T00:12:05;-15937.46;;;1.70;100.00
46095;BME280;31832;50.746;-2.716;2024-02-26T00:14:30;-15939.53;;;1.81;100.00
46095;BME280;31832;50.746;-2.716;2024-02-26T00:16:55;-15944.91;;;1.84;100.00
46095;BME280;31832;50.746;-2.716;2024-02-26T00:19:20;-15929.72;;;1.55;100.00
46095;BME280;31832;50.746;-2.716;2024-02-26T00:21:46;-15927.35;;;1.43;100.00
46095;BME280;31832;50.746;-2.716;2024-02-26T00:24:11;-15925.94;;;1.35;100.00
46095;BME280;31832;50.746;-2.716;2024-02-26T00:26:37;-15933.31;;;1.49;100.00
46095;BME280;31832;50.746;-2.716;2024-02-26T00:29:02;-15926.80;;;1.40;100.00
46095;BME280;31832;50.746;-2.716;2024-02-26T00:31:27;-15925.92;;;1.35;100.00
46095;BME280;31832;50.746;-2.716;2024-02-26T00:33:53;-15933.81;;;1.76;100.00
46095;BME280;31832;50.746;-2.716;2024-02-26T00:36:19;-15932.30;;;1.68;100.00
46095;BME280;31832;50.746;-2.716;2024-02-26T00:38:44;-15920.34;;;1.31;100.00
46095;BME280;31832;50.746;-2.716;2024-02-26T00:41:10;-15911.28;;;1.08;100.00
46095;BME280;31832;50.746;-2.716;2024-02-26T00:43:35;-15916.88;;;1.37;100.00
46095;BME280;31832;50.746;-2.716;2024-02-26T00:46:01;-15910.20;;;1.03;100.00
46095;BME280;31832;50.746;-2.716;2024-02-26T00:48:26;-15914.91;;;1.27;100.00
46095;BME280;31832;50.746;-2.716;2024-02-26T00:50:51;-15917.16;;;1.14;100.00
46095;BME280;31832;50.746;-2.716;2024-02-26T00:53:16;-15919.72;;;1.04;100.00
46095;BME280;31832;50.746;-2.716;2024-02-26T00:55:42;-15909.16;;;1.21;100.00
46095;BME280;31832;50.746;-2.716;2024-02-26T00:58:07;-15905.68;;;1.04;100.00
46095;BME280;31832;50.746;-2.716;2024-02-26T01:00:32;-15911.39;;;1.09;100.00
46095;BME280;31832;50.746;-2.716;2024-02-26T01:02:58;-15912.61;;;0.91;100.00
46095;BME280;31832;50.746;-2.716;2024-02-26T01:05:23;-15912.88;;;1.16;100.00
46095;BME280;31832;50.746;-2.716;2024-02-26T01:07:49;-15909.85;;;1.01;100.00
46095;BME280;31832;50.746;-2.716;2024-02-26T01:10:14;-15913.70;;;0.97;100.00
46095;BME280;31832;50.746;-2.716;2024-02-26T01:12:39;-15903.28;;;0.91;100.00
46095;BME280;31832;50.746;-2.716;2024-02-26T01:15:05;-15896.76;;;0.58;100.00
46095;BME280;31832;50.746;-2.716;2024-02-26T01:17:30;-15897.73;;;0.39;100.00
46095;BME280;31832;50.746;-2.716;2024-02-26T01:19:56;-15898.44;;;0.43;100.00
46095;BME280;31832;50.746;-2.716;2024-02-26T01:22:21;-15892.78;;;0.62;100.00
46095;BME280;31832;50.746;-2.716;2024-02-26T01:24:47;-15889.77;;;0.46;100.00
46095;BME280;31832;50.746;-2.716;2024-02-26T01:27:12;-15903.56;;;0.69;100.00
46095;BME280;31832;50.746;-2.716;2024-02-26T01:29:37;-15905.74;;;0.80;100.00
46095;BME280;31832;50.746;-2.716;2024-02-26T01:32:02;-15898.17;;;0.65;100.00
46095;BME280;31832;50.746;-2.716;2024-02-26T01:34:27;-15906.65;;;0.61;100.00
46095;BME280;31832;50.746;-2.716;2024-02-26T01:36:53;-15892.47;;;0.60;100.00
46095;BME280;31832;50.746;-2.716;2024-02-26T01:39:18;-15907.61;;;0.42;100.00
46095;BME280;31832;50.746;-2.716;2024-02-26T01:41:43;-15898.65;;;0.68;100.00
46095;BME280;31832;50.746;-2.716;2024-02-26T01:44:11;-15899.78;;;0.73;100.00
46095;BME280;31832;50.746;-2.716;2024-02-26T01:46:34;-15902.08;;;0.61;100.00
46095;BME280;31832;50.746;-2.716;2024-02-26T01:48:59;-15899.80;;;0.74;100.00
46095;BME280;31832;50.746;-2.716;2024-02-26T01:51:24;-15893.28;;;0.40;100.00
46095;BME280;31832;50.746;-2.716;2024-02-26T01:53:49;-15899.45;;;0.96;100.00
46095;BME280;31832;50.746;-2.716;2024-02-26T01:56:16;-15915.67;;;0.83;100.00
46095;BME280;31832;50.746;-2.716;2024-02-26T01:58:41;-15908.84;;;0.96;100.00
46095;BME280;31832;50.746;-2.716;2024-02-26T02:01:06;-15904.69;;;0.99;100.00
46095;BME280;31832;50.746;-2.716;2024-02-26T02:03:30;-15905.96;;;0.81;100.00
46095;BME280;31832;50.746;-2.716;2024-02-26T02:05:56;-15899.21;;;0.71;100.00
46095;BME280;31832;50.746;-2.716;2024-02-26T02:08:22;-15899.57;;;0.48;100.00
46095;BME280;31832;50.746;-2.716;2024-02-26T02:10:47;-15909.17;;;0.97;100.00
46095;BME280;31832;50.746;-2.716;2024-02-26T02:13:12;-15896.02;;;0.78;100.00
46095;BME280;31832;50.746;-2.716;2024-02-26T02:15:37;-15906.07;;;0.82;100.00
46095;BME280;31832;50.746;-2.716;2024-02-26T02:18:02;-15909.20;;;0.98;100.00
46095;BME280;31832;50.746;-2.716;2024-02-26T02:20:32;-15898.60;;;0.43;100.00
46095;BME280;31832;50.746;-2.716;2024-02-26T02:22:53;-15904.28;;;0.72;100.00
46095;BME280;31832;50.746;-2.716;2024-02-26T02:25:18;-15901.29;;;0.57;100.00
46095;BME280;31832;50.746;-2.716;2024-02-26T02:27:43;-15901.03;;;0.56;100.00
46095;BME280;31832;50.746;-2.716;2024-02-26T02:30:09;-15901.50;;;0.82;100.00
46095;BME280;31832;50.746;-2.716;2024-02-26T02:32:34;-15902.23;;;0.62;100.00
46095;BME280;31832;50.746;-2.716;2024-02-26T02:35:00;-15912.47;;;1.14;100.00
46095;BME280;31832;50.746;-2.716;2024-02-26T02:37:25;-15912.78;;;1.16;100.00
46095;BME280;31832;50.746;-2.716;2024-02-26T02:39:50;-15906.59;;;0.84;100.00
46095;BME280;31832;50.746;-2.716;2024-02-26T02:42:16;-15908.30;;;0.93;100.00
46095;BME280;31832;50.746;-2.716;2024-02-26T02:44:41;-15921.17;;;1.35;100.00
46095;BME280;31832;50.746;-2.716;2024-02-26T02:47:07;-15910.78;;;0.82;100.00
46095;BME280;31832;50.746;-2.716;2024-02-26T02:49:32;-15911.04;;;1.07;100.00
46095;BME280;31832;50.746;-2.716;2024-02-26T02:51:58;-15903.91;;;0.95;100.00
46095;BME280;31832;50.746;-2.716;2024-02-26T02:54:23;-15911.25;;;1.08;100.00
46095;BME280;31832;50.746;-2.716;2024-02-26T02:56:48;-15904.97;;;1.24;100.00
46095;BME280;31832;50.746;-2.716;2024-02-26T02:59:14;-15906.14;;;0.82;100.00
46095;BME280;31832;50.746;-2.716;2024-02-26T03:01:40;-15923.25;;;1.22;100.00
46095;BME280;31832;50.746;-2.716;2024-02-26T03:04:05;-15919.62;;;1.03;100.00
46095;BME280;31832;50.746;-2.716;2024-02-26T03:06:30;-15915.27;;;1.29;100.00
46095;BME280;31832;50.746;-2.716;2024-02-26T03:08:56;-15921.36;;;1.60;100.00
46095;BME280;31832;50.746;-2.716;2024-02-26T03:11:21;-15917.58;;;1.17;100.00
46095;BME280;31832;50.746;-2.716;2024-02-26T03:13:46;-15908.34;;;0.93;100.00
46095;BME280;31832;50.746;-2.716;2024-02-26T03:16:12;-15915.46;;;1.30;100.00
46095;BME280;31832;50.746;-2.716;2024-02-26T03:18:38;-15908.17;;;0.92;100.00
46095;BME280;31832;50.746;-2.716;2024-02-26T03:21:02;-15909.66;;;1.00;100.00
46095;BME280;31832;50.746;-2.716;2024-02-26T03:23:27;-15921.37;;;1.36;100.00
46095;BME280;31832;50.746;-2.716;2024-02-26T03:25:53;-15914.20;;;1.23;100.00
46095;BME280;31832;50.746;-2.716;2024-02-26T03:28:18;-15919.65;;;1.27;100.00
46095;BME280;31832;50.746;-2.716;2024-02-26T03:30:43;-15924.09;;;1.26;100.00
46095;BME280;31832;50.746;-2.716;2024-02-26T03:33:08;-15911.13;;;0.84;100.00
46095;BME280;31832;50.746;-2.716;2024-02-26T03:35:33;-15911.58;;;1.10;100.00
46095;BME280;31832;50.746;-2.716;2024-02-26T03:37:59;-15906.02;;;0.81;100.00
46095;BME280;31832;50.746;-2.716;2024-02-26T03:40:24;-15910.81;;;1.06;100.00
46095;BME280;31832;50.746;-2.716;2024-02-26T03:42:49;-15918.91;;;0.99;100.00
46095;BME280;31832;50.746;-2.716;2024-02-26T03:45:15;-15915.25;;;1.05;100.00
46095;BME280;31832;50.746;-2.716;2024-02-26T03:47:40;-15916.68;;;0.88;100.00
46095;BME280;31832;50.746;-2.716;2024-02-26T03:50:06;-15909.07;;;1.21;100.00
46095;BME280;31832;50.746;-2.716;2024-02-26T03:52:30;-15914.65;;;1.25;100.00
46095;BME280;31832;50.746;-2.716;2024-02-26T03:54:56;-15907.50;;;0.89;100.00
46095;BME280;31832;50.746;-2.716;2024-02-26T03:57:22;-15923.20;;;1.21;100.00
46095;BME280;31832;50.746;-2.716;2024-02-26T03:59:47;-15919.93;;;1.52;100.00
46095;BME280;31832;50.746;-2.716;2024-02-26T04:02:12;-15922.73;;;1.43;100.00
46095;BME280;31832;50.746;-2.716;2024-02-26T04:04:37;-15915.66;;;1.07;100.00
46095;BME280;31832;50.746;-2.716;2024-02-26T04:07:03;-15923.92;;;1.49;100.00
46095;BME280;31832;50.746;-2.716;2024-02-26T04:09:28;-15922.60;;;1.18;100.00
46095;BME280;31832;50.746;-2.716;2024-02-26T04:11:53;-15914.97;;;1.27;100.00
46095;BME280;31832;50.746;-2.716;2024-02-26T04:14:19;-15915.07;;;1.28;100.00
46095;BME280;31832;50.746;-2.716;2024-02-26T04:16:43;-15924.09;;;1.26;100.00
46095;BME280;31832;50.746;-2.716;2024-02-26T04:19:09;-15926.07;;;1.36;100.00
46095;BME280;31832;50.746;-2.716;2024-02-26T04:21:34;-15919.72;;;1.27;100.00
46095;BME280;31832;50.746;-2.716;2024-02-26T04:23:59;-15916.22;;;1.33;100.00
46095;BME280;31832;50.746;-2.716;2024-02-26T04:26:25;-15923.36;;;1.22;100.00
46095;BME280;31832;50.746;-2.716;2024-02-26T04:28:51;-15913.73;;;1.21;100.00
46095;BME280;31832;50.746;-2.716;2024-02-26T04:31:15;-15924.38;;;1.27;100.00
46095;BME280;31832;50.746;-2.716;2024-02-26T04:33:40;-15923.34;;;1.46;100.00
46095;BME280;31832;50.746;-2.716;2024-02-26T04:36:11;-15916.41;;;1.34;100.00
46095;BME280;31832;50.746;-2.716;2024-02-26T04:38:32;-15928.79;;;1.50;100.00
46095;BME280;31832;50.746;-2.716;2024-02-26T04:40:57;-15911.85;;;1.35;100.00
46095;BME280;31832;50.746;-2.716;2024-02-26T04:43:22;-15915.16;;;1.28;100.00
46095;BME280;31832;50.746;-2.716;2024-02-26T04:45:47;-15913.22;;;1.18;100.00
46095;BME280;31832;50.746;-2.716;2024-02-26T04:48:13;-15909.45;;;1.23;100.00
46095;BME280;31832;50.746;-2.716;2024-02-26T04:50:38;-15909.81;;;0.77;100.00
46095;BME280;31832;50.746;-2.716;2024-02-26T04:53:04;-15924.08;;;1.26;100.00
46095;BME280;31832;50.746;-2.716;2024-02-26T04:55:28;-15929.76;;;1.55;100.00
46095;BME280;31832;50.746;-2.716;2024-02-26T04:57:54;-15911.92;;;1.12;100.00
46095;BME280;31832;50.746;-2.716;2024-02-26T05:00:19;-15915.37;;;1.29;100.00
46095;BME280;31832;50.746;-2.716;2024-02-26T05:02:45;-15905.84;;;0.80;100.00
46095;BME280;31832;50.746;-2.716;2024-02-26T05:05:10;-15911.08;;;0.59;100.00
46095;BME280;31832;50.746;-2.716;2024-02-26T05:07:39;-15920.88;;;1.57;100.00
46095;BME280;31832;50.746;-2.716;2024-02-26T05:10:00;-15915.95;;;0.84;100.00
46095;BME280;31832;50.746;-2.716;2024-02-26T05:12:26;-15917.87;;;1.42;100.00
46095;BME280;31832;50.746;-2.716;2024-02-26T05:14:51;-15910.73;;;0.82;100.00
46095;BME280;31832;50.746;-2.716;2024-02-26T05:17:16;-15915.16;;;1.28;100.00
46095;BME280;31832;50.746;-2.716;2024-02-26T05:19:42;-15903.62;;;0.93;100.00
46095;BME280;31832;50.746;-2.716;2024-02-26T05:22:07;-15908.86;;;0.96;100.00
46095;BME280;31832;50.746;-2.716;2024-02-26T05:24:32;-15908.34;;;1.17;100.00
46095;BME280;31832;50.746;-2.716;2024-02-26T05:26:57;-15909.20;;;0.98;100.00
46095;BME280;31832;50.746;-2.716;2024-02-26T05:29:23;-15907.92;;;0.91;100.00
46095;BME280;31832;50.746;-2.716;2024-02-26T05:31:48;-15900.80;;;1.03;100.00
46095;BME280;31832;50.746;-2.716;2024-02-26T05:34:13;-15905.45;;;0.78;100.00
46095;BME280;31832;50.746;-2.716;2024-02-26T05:36:38;-15899.36;;;0.71;100.00
46095;BME280;31832;50.746;-2.716;2024-02-26T05:39:03;-15905.62;;;0.79;100.00
46095;BME280;31832;50.746;-2.716;2024-02-26T05:41:29;-15902.99;;;0.66;100.00
46095;BME280;31832;50.746;-2.716;2024-02-26T05:43:54;-15898.18;;;0.89;100.00
46095;BME280;31832;50.746;-2.716;2024-02-26T05:46:20;-15900.00;;;0.75;100.00
46095;BME280;31832;50.746;-2.716;2024-02-26T05:48:46;-15913.24;;;0.94;100.00
46095;BME280;31832;50.746;-2.716;2024-02-26T05:51:10;-15898.08;;;0.41;100.00
46095;BME280;31832;50.746;-2.716;2024-02-26T05:53:35;-15893.42;;;0.65;100.00
46095;BME280;31832;50.746;-2.716;2024-02-26T05:56:01;-15902.60;;;0.64;100.00
46095;BME280;31832;50.746;-2.716;2024-02-26T05:58:26;-15896.38;;;0.80;100.00
46095;BME280;31832;50.746;-2.716;2024-02-26T06:00:51;-15899.49;;;0.72;100.00
46095;BME280;31832;50.746;-2.716;2024-02-26T06:03:17;-15908.24;;;0.69;100.00
46095;BME280;31832;50.746;-2.716;2024-02-26T06:05:42;-15898.50;;;0.67;100.00
46095;BME280;31832;50.746;-2.716;2024-02-26T06:08:07;-15894.00;;;0.68;100.00
46095;BME280;31832;50.746;-2.716;2024-02-26T06:10:33;-15898.76;;;0.92;100.00
46095;BME280;31832;50.746;-2.716;2024-02-26T06:12:58;-15911.63;;;1.10;100.00
46095;BME280;31832;50.746;-2.716;2024-02-26T06:15:23;-15905.60;;;0.79;100.00
46095;BME280;31832;50.746;-2.716;2024-02-26T06:17:49;-15892.56;;;0.61;100.00
46095;BME280;31832;50.746;-2.716;2024-02-26T06:20:14;-15900.32;;;0.76;100.00
46095;BME280;31832;50.746;-2.716;2024-02-26T06:22:40;-15894.56;;;0.47;100.00
46095;BME280;31832;50.746;-2.716;2024-02-26T06:25:05;-15903.77;;;0.70;100.00
46095;BME280;31832;50.746;-2.716;2024-02-26T06:27:35;-15898.06;;;0.65;100.00
46095;BME280;31832;50.746;-2.716;2024-02-26T06:29:56;-15893.41;;;0.41;100.00
46095;BME280;31832;50.746;-2.716;2024-02-26T06:32:20;-15892.36;;;0.59;100.00
46095;BME280;31832;50.746;-2.716;2024-02-26T06:34:46;-15893.43;;;0.65;100.00
46095;BME280;31832;50.746;-2.716;2024-02-26T06:37:11;-15895.41;;;0.75;100.00
46095;BME280;31832;50.746;-2.716;2024-02-26T06:39:36;-15899.04;;;0.70;100.00
46095;BME280;31832;50.746;-2.716;2024-02-26T06:42:02;-15898.57;;;0.91;100.00
46095;BME280;31832;50.746;-2.716;2024-02-26T06:44:28;-15896.21;;;0.31;100.00
46095;BME280;31832;50.746;-2.716;2024-02-26T06:46:52;-15899.49;;;0.72;100.00
46095;BME280;31832;50.746;-2.716;2024-02-26T06:49:17;-15902.62;;;0.64;100.00
46095;BME280;31832;50.746;-2.716;2024-02-26T06:51:43;-15892.94;;;0.62;100.00
46095;BME280;31832;50.746;-2.716;2024-02-26T06:54:08;-15892.37;;;0.59;100.00
46095;BME280;31832;50.746;-2.716;2024-02-26T06:56:33;-15905.24;;;0.77;100.00
46095;BME280;31832;50.746;-2.716;2024-02-26T06:58:59;-15898.81;;;0.68;100.00
46095;BME280;31832;50.746;-2.716;2024-02-26T07:01:24;-15896.40;;;0.56;100.00
46095;BME280;31832;50.746;-2.716;2024-02-26T07:03:49;-15890.19;;;0.48;100.00
46095;BME280;31832;50.746;-2.716;2024-02-26T07:06:15;-15895.81;;;0.77;100.00
46095;BME280;31832;50.746;-2.716;2024-02-26T07:08:39;-15903.81;;;0.70;100.00
46095;BME280;31832;50.746;-2.716;2024-02-26T07:11:07;-15902.47;;;0.63;100.00
46095;BME280;31832;50.746;-2.716;2024-02-26T07:13:30;-15905.05;;;0.76;100.00
46095;BME280;31832;50.746;-2.716;2024-02-26T07:15:56;-15908.18;;;0.92;100.00
46095;BME280;31832;50.746;-2.716;2024-02-26T07:18:20;-15904.31;;;0.73;100.00
46095;BME280;31832;50.746;-2.716;2024-02-26T07:20:46;-15899.42;;;0.72;100.00
46095;BME280;31832;50.746;-2.716;2024-02-26T07:23:11;-15909.65;;;1.00;100.00
46095;BME280;31832;50.746;-2.716;2024-02-26T07:25:37;-15908.26;;;0.93;100.00
46095;BME280;31832;50.746;-2.716;2024-02-26T07:28:02;-15907.88;;;1.15;100.00
46095;BME280;31832;50.746;-2.716;2024-02-26T07:30:33;-15909.98;;;1.02;100.00
46095;BME280;31832;50.746;-2.716;2024-02-26T07:32:53;-15902.93;;;0.90;100.00
46095;BME280;31832;50.746;-2.716;2024-02-26T07:35:18;-15910.33;;;1.03;100.00
46095;BME280;31832;50.746;-2.716;2024-02-26T07:37:43;-15907.06;;;1.11;100.00
46095;BME280;31832;50.746;-2.716;2024-02-26T07:40:09;-15910.25;;;1.03;100.00
46095;BME280;31832;50.746;-2.716;2024-02-26T07:42:33;-15913.20;;;1.18;100.00
46095;BME280;31832;50.746;-2.716;2024-02-26T07:44:59;-15911.45;;;1.09;100.00
46095;BME280;31832;50.746;-2.716;2024-02-26T07:47:24;-15914.59;;;1.25;100.00
46095;BME280;31832;50.746;-2.716;2024-02-26T07:49:50;-15908.62;;;0.95;100.00
46095;BME280;31832;50.746;-2.716;2024-02-26T07:52:20;-15927.09;;;1.41;100.00
46095;BME280;31832;50.746;-2.716;2024-02-26T07:54:40;-15928.88;;;1.50;100.00
46095;BME280;31832;50.746;-2.716;2024-02-26T07:57:06;-15910.75;;;1.29;100.00
46095;BME280;31832;50.746;-2.716;2024-02-26T07:59:31;-15910.68;;;1.53;100.00
46095;BME280;31832;50.746;-2.716;2024-02-26T08:01:58;-15918.84;;;1.47;100.00
46095;BME280;31832;50.746;-2.716;2024-02-26T08:04:21;-15925.79;;;1.58;100.00
46095;BME280;31832;50.746;-2.716;2024-02-26T08:06:47;-15915.53;;;1.30;100.00
46095;BME280;31832;50.746;-2.716;2024-02-26T08:09:12;-15916.40;;;1.34;100.00
46095;BME280;31832;50.746;-2.716;2024-02-26T08:11:37;-15922.79;;;1.19;100.00
46095;BME280;31832;50.746;-2.716;2024-02-26T08:14:03;-15914.29;;;1.48;100.00
46095;BME280;31832;50.746;-2.716;2024-02-26T08:16:28;-15917.63;;;0.93;100.00
46095;BME280;31832;50.746;-2.716;2024-02-26T08:18:53;-15927.21;;;1.42;100.00
46095;BME280;31832;50.746;-2.716;2024-02-26T08:21:18;-15921.75;;;1.14;100.00
46095;BME280;31832;50.746;-2.716;2024-02-26T08:23:44;-15919.99;;;1.53;100.00
46095;BME280;31832;50.746;-2.716;2024-02-26T08:26:09;-15918.65;;;1.46;100.00
46095;BME280;31832;50.746;-2.716;2024-02-26T08:28:34;-15920.48;;;1.55;100.00
46095;BME280;31832;50.746;-2.716;2024-02-26T08:30:59;-15916.23;;;1.57;100.00
46095;BME280;31832;50.746;-2.716;2024-02-26T08:33:24;-15921.77;;;1.62;100.00
46095;BME280;31832;50.746;-2.716;2024-02-26T08:35:50;-15922.70;;;1.19;100.00
46095;BME280;31832;50.746;-2.716;2024-02-26T08:38:15;-15938.67;;;2.00;100.00
46095;BME280;31832;50.746;-2.716;2024-02-26T08:40:40;-15926.99;;;1.89;100.00
46095;BME280;31832;50.746;-2.716;2024-02-26T08:43:06;-15929.12;;;1.52;100.00
46095;BME280;31832;50.746;-2.716;2024-02-26T08:45:31;-15940.23;;;2.08;100.00
46095;BME280;31832;50.746;-2.716;2024-02-26T08:47:56;-15918.45;;;1.45;100.00
46095;BME280;31832;50.746;-2.716;2024-02-26T08:50:21;-15921.50;;;1.37;100.00
46095;BME280;31832;50.746;-2.716;2024-02-26T08:52:47;-15926.13;;;1.36;100.00
46095;BME280;31832;50.746;-2.716;2024-02-26T08:55:12;-15924.59;;;1.28;100.00
46095;BME280;31832;50.746;-2.716;2024-02-26T08:57:37;-15918.87;;;1.47;100.00
46095;BME280;31832;50.746;-2.716;2024-02-26T09:00:03;-15912.35;;;1.38;100.00
46095;BME280;31832;50.746;-2.716;2024-02-26T09:02:28;-15925.12;;;1.55;100.00
46095;BME280;31832;50.746;-2.716;2024-02-26T09:04:53;-15927.63;;;1.92;100.00
46095;BME280;31832;50.746;-2.716;2024-02-26T09:07:18;-15924.37;;;1.51;100.00
46095;BME280;31832;50.746;-2.716;2024-02-26T09:09:43;-15931.29;;;1.63;100.00
46095;BME280;31832;50.746;-2.716;2024-02-26T09:12:08;-15921.96;;;1.39;100.00
46095;BME280;31832;50.746;-2.716;2024-02-26T09:14:34;-15920.95;;;1.58;100.00
46095;BME280;31832;50.746;-2.716;2024-02-26T09:17:00;-15932.27;;;1.68;100.00
46095;BME280;31832;50.746;-2.716;2024-02-26T09:19:26;-15924.88;;;1.30;100.00
46095;BME280;31832;50.746;-2.716;2024-02-26T09:21:50;-15932.76;;;1.70;100.00
46095;BME280;31832;50.746;-2.716;2024-02-26T09:24:16;-15935.74;;;1.85;100.00
46095;BME280;31832;50.746;-2.716;2024-02-26T09:26:41;-15933.61;;;1.74;100.00
46095;BME280;31832;50.746;-2.716;2024-02-26T09:29:06;-15926.36;;;1.61;100.00
46095;BME280;31832;50.746;-2.716;2024-02-26T09:31:32;-15944.10;;;2.04;100.00
46095;BME280;31832;50.746;-2.716;2024-02-26T09:33:56;-15929.13;;;1.76;100.00
46095;BME280;31832;50.746;-2.716;2024-02-26T09:36:22;-15935.43;;;1.84;100.00
46095;BME280;31832;50.746;-2.716;2024-02-26T09:38:47;-15941.45;;;2.15;100.00
46095;BME280;31832;50.746;-2.716;2024-02-26T09:41:14;-15937.46;;;1.70;100.00
46095;BME280;31832;50.746;-2.716;2024-02-26T09:43:38;-15939.08;;;2.02;100.00
46095;BME280;31832;50.746;-2.716;2024-02-26T09:46:03;-15933.66;;;1.75;100.00
46095;BME280;31832;50.746;-2.716;2024-02-26T09:48:28;-15938.31;;;1.98;100.00
46095;BME280;31832;50.746;-2.716;2024-02-26T09:50:54;-15947.44;;;2.21;100.00
46095;BME280;31832;50.746;-2.716;2024-02-26T09:53:18;-15951.27;;;2.41;100.00
46095;BME280;31832;50.746;-2.716;2024-02-26T09:55:43;-15945.45;;;2.11;100.00
46095;BME280;31832;50.746;-2.716;2024-02-26T09:58:09;-15940.07;;;2.07;100.00
46095;BME280;31832;50.746;-2.716;2024-02-26T10:00:37;-15925.74;;;1.58;100.00
46095;BME280;31832;50.746;-2.716;2024-02-26T10:03:03;-15928.29;;;1.47;100.00
46095;BME280;31832;50.746;-2.716;2024-02-26T10:05:25;-15925.66;;;1.34;100.00
46095;BME280;31832;50.746;-2.716;2024-02-26T10:07:51;-15923.22;;;1.21;100.00
46095;BME280;31832;50.746;-2.716;2024-02-26T10:10:17;-15941.83;;;1.93;100.00
46095;BME280;31832;50.746;-2.716;2024-02-26T10:12:41;-15933.01;;;1.71;100.00
46095;BME280;31832;50.746;-2.716;2024-02-26T10:15:07;-15945.60;;;2.36;100.00
46095;BME280;31832;50.746;-2.716;2024-02-26T10:17:31;-15919.75;;;1.52;100.00
46095;BME280;31832;50.746;-2.716;2024-02-26T10:20:11;-15934.06;;;1.77;100.00
46095;BME280;31832;50.746;-2.716;2024-02-26T10:22:23;-15944.49;;;2.06;100.00
46095;BME280;31832;50.746;-2.716;2024-02-26T10:24:48;-15937.54;;;1.95;100.00
46095;BME280;31832;50.746;-2.716;2024-02-26T10:27:15;-15940.88;;;2.12;100.00
46095;BME280;31832;50.746;-2.716;2024-02-26T10:29:45;-15931.71;;;2.13;100.00
46095;BME280;31832;50.746;-2.716;2024-02-26T10:32:05;-15940.77;;;2.11;100.00
46095;BME280;31832;50.746;-2.716;2024-02-26T10:34:29;-15940.22;;;2.56;100.00
46095;BME280;31832;50.746;-2.716;2024-02-26T10:36:54;-15934.30;;;2.02;100.00
46095;BME280;31832;50.746;-2.716;2024-02-26T10:39:20;-15938.13;;;1.98;100.00
46095;BME280;31832;50.746;-2.716;2024-02-26T10:41:45;-15934.57;;;1.79;100.00
46095;BME280;31832;50.746;-2.716;2024-02-26T10:44:11;-15927.03;;;1.89;100.00
46095;BME280;31832;50.746;-2.716;2024-02-26T10:46:36;-15951.19;;;2.64;100.00
46095;BME280;31832;50.746;-2.716;2024-02-26T10:49:01;-15946.01;;;2.38;100.00
46095;BME280;31832;50.746;-2.716;2024-02-26T10:51:27;-15931.02;;;1.85;100.00
46095;BME280;31832;50.746;-2.716;2024-02-26T10:53:55;-15959.34;;;2.58;100.00
46095;BME280;31832;50.746;-2.716;2024-02-26T10:56:17;-15963.60;;;2.56;100.00
46095;BME280;31832;50.746;-2.716;2024-02-26T10:58:43;-15953.46;;;2.76;100.00
46095;BME280;31832;50.746;-2.716;2024-02-26T11:01:07;-15958.17;;;2.52;100.00
46095;BME280;31832;50.746;-2.716;2024-02-26T11:03:33;-15944.99;;;2.33;100.00
46095;BME280;31832;50.746;-2.716;2024-02-26T11:05:59;-15959.96;;;2.85;100.00
46095;BME280;31832;50.746;-2.716;2024-02-26T11:08:24;-15955.25;;;2.61;100.00
46095;BME280;31832;50.746;-2.716;2024-02-26T11:10:48;-15948.35;;;2.50;100.00
46095;BME280;31832;50.746;-2.716;2024-02-26T11:13:16;-15964.70;;;2.86;100.00
46095;BME280;31832;50.746;-2.716;2024-02-26T11:15:39;-15978.92;;;3.34;100.00
46095;BME280;31832;50.746;-2.716;2024-02-26T11:18:04;-15973.89;;;3.09;100.00
46095;BME280;31832;50.746;-2.716;2024-02-26T11:20:29;-15969.46;;;2.86;100.00
46095;BME280;31832;50.746;-2.716;2024-02-26T11:22:54;-15949.29;;;2.31;100.00
46095;BME280;31832;50.746;-2.716;2024-02-26T11:25:20;-15966.68;;;2.96;100.00
46095;BME280;31832;50.746;-2.716;2024-02-26T11:27:49;-15975.30;;;2.92;100.00
46095;BME280;31832;50.746;-2.716;2024-02-26T11:30:11;-15972.55;;;2.78;100.00
46095;BME280;31832;50.746;-2.716;2024-02-26T11:32:36;-15959.57;;;2.83;100.00
46095;BME280;31832;50.746;-2.716;2024-02-26T11:35:01;-15957.77;;;2.74;100.00
46095;BME280;31832;50.746;-2.716;2024-02-26T11:37:26;-15986.28;;;3.96;100.00
46095;BME280;31832;50.746;-2.716;2024-02-26T11:39:52;-16005.34;;;4.21;100.00
46095;BME280;31832;50.746;-2.716;2024-02-26T11:42:17;-15977.40;;;3.50;100.00
46095;BME280;31832;50.746;-2.716;2024-02-26T11:44:42;-15984.74;;;3.64;100.00
46095;BME280;31832;50.746;-2.716;2024-02-26T11:47:11;-15974.67;;;2.89;100.00
46095;BME280;31832;50.746;-2.716;2024-02-26T11:49:32;-15973.91;;;3.33;100.00
46095;BME280;31832;50.746;-2.716;2024-02-26T11:51:58;-15971.82;;;3.22;100.00
46095;BME280;31832;50.746;-2.716;2024-02-26T11:54:38;-15983.23;;;3.32;100.00
46095;BME280;31832;50.746;-2.716;2024-02-26T11:56:50;-15967.15;;;2.98;100.00
46095;BME280;31832;50.746;-2.716;2024-02-26T11:59:36;-15970.19;;;3.14;100.00
46095;BME280;31832;50.746;-2.716;2024-02-26T12:01:44;-15972.36;;;3.25;100.00
46095;BME280;31832;50.746;-2.716;2024-02-26T12:04:06;-15982.76;;;3.78;100.00
46095;BME280;31832;50.746;-2.716;2024-02-26T12:06:30;-15986.86;;;3.99;100.00
46095;BME280;31832;50.746;-2.716;2024-02-26T12:08:56;-15981.83;;;3.73;100.00
46095;BME280;31832;50.746;-2.716;2024-02-26T12:11:21;-15963.84;;;3.29;100.00
46095;BME280;31832;50.746;-2.716;2024-02-26T12:13:47;-15978.52;;;3.56;100.00
46095;BME280;31832;50.746;-2.716;2024-02-26T12:16:11;-15989.79;;;3.66;100.00
46095;BME280;31832;50.746;-2.716;2024-02-26T12:18:46;-15997.10;;;4.03;100.00
46095;BME280;31832;50.746;-2.716;2024-02-26T12:21:04;-15997.75;;;3.83;100.00
46095;BME280;31832;50.746;-2.716;2024-02-26T12:23:27;-16005.72;;;4.23;100.00
46095;BME280;31832;50.746;-2.716;2024-02-26T12:25:53;-16016.49;;;4.55;100.00
46095;BME280;31832;50.746;-2.716;2024-02-26T12:28:17;-15988.69;;;3.60;100.00
46095;BME280;31832;50.746;-2.716;2024-02-26T12:30:43;-15981.09;;;3.70;100.00